sensor_id;sensor_type;location;lat;lon;timestamp;temperature;humidity
37788;DHT22;23627;53.302;-6.362;2024-03-08T00:00:08;8.10;99.90
37788;DHT22;23627;53.302;-6.362;2024-03-08T00:02:42;8.10;99.90
37788;DHT22;23627;53.302;-6.362;2024-03-08T00:05:08;8.10;99.90
37788;DHT22;23627;53.302;-6.362;2024-03-08T00:07:35;8.10;99.90
37788;DHT22;23627;53.302;-6.362;2024-03-08T00:10:05;8.10;99.90
37788;DHT22;23627;53.302;-6.362;2024-03-08T00:12:31;8.10;99.90
37788;DHT22;23627;53.302;-6.362;2024-03-08T00:14:57;8.10;99.90
37788;DHT22;23627;53.302;-6.362;2024-03-08T00:17:23;8.10;99.90
37788;DHT22;23627;53.302;-6.362;2024-03-08T00:19:49;8.10;99.90
37788;DHT22;23627;53.302;-6.362;2024-03-08T00:22:18;8.10;99.90
37788;DHT22;23627;53.302;-6.362;2024-03-08T00:24:44;8.00;99.90
37788;DHT22;23627;53.302;-6.362;2024-03-08T00:27:09;8.10;99.90
37788;DHT22;23627;53.302;-6.362;2024-03-08T00:29:37;8.00;99.90
37788;DHT22;23627;53.302;-6.362;2024-03-08T00:32:04;8.00;99.90
37788;DHT22;23627;53.302;-6.362;2024-03-08T00:34:30;8.00;99.90
37788;DHT22;23627;53.302;-6.362;2024-03-08T00:36:57;8.00;99.90
37788;DHT22;23627;53.302;-6.362;2024-03-08T00:39:23;8.00;99.90
37788;DHT22;23627;53.302;-6.362;2024-03-08T00:41:50;8.00;99.90
37788;DHT22;23627;53.302;-6.362;2024-03-08T00:44:15;8.00;99.90
37788;DHT22;23627;53.302;-6.362;2024-03-08T00:46:41;8.00;99.90
37788;DHT22;23627;53.302;-6.362;2024-03-08T00:49:08;8.00;99.90
37788;DHT22;23627;53.302;-6.362;2024-03-08T00:51:33;8.00;99.90
37788;DHT22;23627;53.302;-6.362;2024-03-08T00:53:59;8.00;99.90
37788;DHT22;23627;53.302;-6.362;2024-03-08T00:56:25;8.00;99.90
37788;DHT22;23627;53.302;-6.362;2024-03-08T00:58:51;7.90;99.90
37788;DHT22;23627;53.302;-6.362;2024-03-08T01:01:18;7.90;99.90
37788;DHT22;23627;53.302;-6.362;2024-03-08T01:03:44;7.90;99.90
37788;DHT22;23627;53.302;-6.362;2024-03-08T01:06:10;7.90;99.90
37788;DHT22;23627;53.302;-6.362;2024-03-08T01:08:37;7.90;99.90
37788;DHT22;23627;53.302;-6.362;2024-03-08T01:11:04;7.90;99.90
37788;DHT22;23627;53.302;-6.362;2024-03-08T01:13:30;7.90;99.90
37788;DHT22;23627;53.302;-6.362;2024-03-08T01:15:56;7.90;99.90
37788;DHT22;23627;53.302;-6.362;2024-03-08T01:18:22;7.90;99.90
37788;DHT22;23627;53.302;-6.362;2024-03-08T01:20:48;7.90;99.90
37788;DHT22;23627;53.302;-6.362;2024-03-08T01:23:13;7.80;99.90
37788;DHT22;23627;53.302;-6.362;2024-03-08T01:25:39;7.80;99.90
37788;DHT22;23627;53.302;-6.362;2024-03-08T01:28:07;7.80;99.90
37788;DHT22;23627;53.302;-6.362;2024-03-08T01:30:32;7.80;99.90
37788;DHT22;23627;53.302;-6.362;2024-03-08T01:33:00;7.80;99.90
37788;DHT22;23627;53.302;-6.362;2024-03-08T01:35:26;7.80;99.90
37788;DHT22;23627;53.302;-6.362;2024-03-08T01:37:53;7.80;99.90
37788;DHT22;23627;53.302;-6.362;2024-03-08T01:40:18;7.80;99.90
37788;DHT22;23627;53.302;-6.362;2024-03-08T01:42:44;7.80;99.90
37788;DHT22;23627;53.302;-6.362;2024-03-08T01:45:10;7.80;99.90
37788;DHT22;23627;53.302;-6.362;2024-03-08T01:47:37;7.80;99.90
37788;DHT22;23627;53.302;-6.362;2024-03-08T01:50:03;7.80;99.90
37788;DHT22;23627;53.302;-6.362;2024-03-08T01:52:32;7.70;99.90
37788;DHT22;23627;53.302;-6.362;2024-03-08T01:55:03;7.70;99.90
37788;DHT22;23627;53.302;-6.362;2024-03-08T01:57:32;7.70;99.90
37788;DHT22;23627;53.302;-6.362;2024-03-08T02:00:00;7.70;99.90
37788;DHT22;23627;53.302;-6.362;2024-03-08T02:02:32;7.70;99.90
37788;DHT22;23627;53.302;-6.362;2024-03-08T02:04:58;7.70;99.90
37788;DHT22;23627;53.302;-6.362;2024-03-08T02:07:25;7.70;99.90
37788;DHT22;23627;53.302;-6.362;2024-03-08T02:09:51;7.70;99.90
37788;DHT22;23627;53.302;-6.362;2024-03-08T02:12:17;7.70;99.90
37788;DHT22;23627;53.302;-6.362;2024-03-08T02:14:46;7.70;99.90
37788;DHT22;23627;53.302;-6.362;2024-03-08T02:17:12;7.70;99.90
37788;DHT22;23627;53.302;-6.362;2024-03-08T02:19:38;7.70;99.90
37788;DHT22;23627;53.302;-6.362;2024-03-08T02:22:05;7.60;99.90
37788;DHT22;23627;53.302;-6.362;2024-03-08T02:24:32;7.60;99.90
37788;DHT22;23627;53.302;-6.362;2024-03-08T02:26:58;7.60;99.90
37788;DHT22;23627;53.302;-6.362;2024-03-08T02:29:24;7.60;99.90
37788;DHT22;23627;53.302;-6.362;2024-03-08T02:31:53;7.60;99.90
37788;DHT22;23627;53.302;-6.362;2024-03-08T02:34:19;7.60;99.90
37788;DHT22;23627;53.302;-6.362;2024-03-08T02:36:45;7.60;99.90
37788;DHT22;23627;53.302;-6.362;2024-03-08T02:39:12;7.60;99.90
37788;DHT22;23627;53.302;-6.362;2024-03-08T02:41:38;7.60;99.90
37788;DHT22;23627;53.302;-6.362;2024-03-08T02:44:04;7.60;99.90
37788;DHT22;23627;53.302;-6.362;2024-03-08T02:46:29;7.60;99.90
37788;DHT22;23627;53.302;-6.362;2024-03-08T02:48:55;7.60;99.90
37788;DHT22;23627;53.302;-6.362;2024-03-08T02:51:21;7.60;99.90
37788;DHT22;23627;53.302;-6.362;2024-03-08T02:53:47;7.50;99.90
37788;DHT22;23627;53.302;-6.362;2024-03-08T02:56:15;7.50;99.90
37788;DHT22;23627;53.302;-6.362;2024-03-08T02:58:42;7.50;99.90
37788;DHT22;23627;53.302;-6.362;2024-03-08T03:01:08;7.50;99.90
37788;DHT22;23627;53.302;-6.362;2024-03-08T03:03:35;7.50;99.90
37788;DHT22;23627;53.302;-6.362;2024-03-08T03:06:01;7.50;99.90
37788;DHT22;23627;53.302;-6.362;2024-03-08T03:08:27;7.50;99.90
37788;DHT22;23627;53.302;-6.362;2024-03-08T03:10:53;7.50;99.90
37788;DHT22;23627;53.302;-6.362;2024-03-08T03:13:22;7.50;99.90
37788;DHT22;23627;53.302;-6.362;2024-03-08T03:15:48;7.50;99.90
37788;DHT22;23627;53.302;-6.362;2024-03-08T03:18:14;7.50;99.90
37788;DHT22;23627;53.302;-6.362;2024-03-08T03:20:41;7.50;99.90
37788;DHT22;23627;53.302;-6.362;2024-03-08T03:23:08;7.40;99.90
37788;DHT22;23627;53.302;-6.362;2024-03-08T03:25:35;7.40;99.90
37788;DHT22;23627;53.302;-6.362;2024-03-08T03:28:04;7.40;99.90
37788;DHT22;23627;53.302;-6.362;2024-03-08T03:30:30;7.40;99.90
37788;DHT22;23627;53.302;-6.362;2024-03-08T03:33:00;7.40;99.90
37788;DHT22;23627;53.302;-6.362;2024-03-08T03:35:27;7.40;99.90
37788;DHT22;23627;53.302;-6.362;2024-03-08T03:37:53;7.30;99.90
37788;DHT22;23627;53.302;-6.362;2024-03-08T03:40:48;7.30;99.90
37788;DHT22;23627;53.302;-6.362;2024-03-08T03:43:17;7.30;99.90
37788;DHT22;23627;53.302;-6.362;2024-03-08T03:45:43;7.30;99.90
37788;DHT22;23627;53.302;-6.362;2024-03-08T03:48:09;7.30;99.90
37788;DHT22;23627;53.302;-6.362;2024-03-08T03:50:35;7.30;99.90
37788;DHT22;23627;53.302;-6.362;2024-03-08T03:53:01;7.30;99.90
37788;DHT22;23627;53.302;-6.362;2024-03-08T03:55:28;7.30;99.90
37788;DHT22;23627;53.302;-6.362;2024-03-08T03:57:54;7.30;99.90
37788;DHT22;23627;53.302;-6.362;2024-03-08T04:00:20;7.20;99.90
37788;DHT22;23627;53.302;-6.362;2024-03-08T04:02:46;7.20;99.90
37788;DHT22;23627;53.302;-6.362;2024-03-08T04:05:12;7.20;99.90
37788;DHT22;23627;53.302;-6.362;2024-03-08T04:07:39;7.20;99.90
37788;DHT22;23627;53.302;-6.362;2024-03-08T04:10:06;7.20;99.90
37788;DHT22;23627;53.302;-6.362;2024-03-08T04:12:36;7.20;99.90
37788;DHT22;23627;53.302;-6.362;2024-03-08T04:15:01;7.20;99.90
37788;DHT22;23627;53.302;-6.362;2024-03-08T04:17:27;7.20;99.90
37788;DHT22;23627;53.302;-6.362;2024-03-08T04:19:53;7.20;99.90
37788;DHT22;23627;53.302;-6.362;2024-03-08T04:22:19;7.20;99.90
37788;DHT22;23627;53.302;-6.362;2024-03-08T04:24:46;7.20;99.90
37788;DHT22;23627;53.302;-6.362;2024-03-08T04:27:12;7.20;99.90
37788;DHT22;23627;53.302;-6.362;2024-03-08T04:29:38;7.10;99.90
37788;DHT22;23627;53.302;-6.362;2024-03-08T04:32:05;7.10;99.90
37788;DHT22;23627;53.302;-6.362;2024-03-08T04:34:32;7.10;99.90
37788;DHT22;23627;53.302;-6.362;2024-03-08T04:36:59;7.20;99.90
37788;DHT22;23627;53.302;-6.362;2024-03-08T04:39:25;7.20;99.90
37788;DHT22;23627;53.302;-6.362;2024-03-08T04:41:55;7.20;99.90
37788;DHT22;23627;53.302;-6.362;2024-03-08T04:44:22;7.10;99.90
37788;DHT22;23627;53.302;-6.362;2024-03-08T04:46:48;7.10;99.90
37788;DHT22;23627;53.302;-6.362;2024-03-08T04:49:14;7.20;99.90
37788;DHT22;23627;53.302;-6.362;2024-03-08T04:51:40;7.10;99.90
37788;DHT22;23627;53.302;-6.362;2024-03-08T04:54:06;7.10;99.90
37788;DHT22;23627;53.302;-6.362;2024-03-08T04:56:31;7.10;99.90
37788;DHT22;23627;53.302;-6.362;2024-03-08T04:58:57;7.20;99.90
37788;DHT22;23627;53.302;-6.362;2024-03-08T05:01:23;7.10;99.90
37788;DHT22;23627;53.302;-6.362;2024-03-08T05:03:49;7.10;99.90
37788;DHT22;23627;53.302;-6.362;2024-03-08T05:06:16;7.10;99.90
37788;DHT22;23627;53.302;-6.362;2024-03-08T05:08:42;7.10;99.90
37788;DHT22;23627;53.302;-6.362;2024-03-08T05:11:08;7.10;99.90
37788;DHT22;23627;53.302;-6.362;2024-03-08T05:13:33;7.10;99.90
37788;DHT22;23627;53.302;-6.362;2024-03-08T05:16:03;7.10;99.90
37788;DHT22;23627;53.302;-6.362;2024-03-08T05:18:29;7.10;99.90
37788;DHT22;23627;53.302;-6.362;2024-03-08T05:20:54;7.10;99.90
37788;DHT22;23627;53.302;-6.362;2024-03-08T05:23:20;7.10;99.90
37788;DHT22;23627;53.302;-6.362;2024-03-08T05:25:47;7.10;99.90
37788;DHT22;23627;53.302;-6.362;2024-03-08T05:28:13;7.10;99.90
37788;DHT22;23627;53.302;-6.362;2024-03-08T05:30:39;7.10;99.90
37788;DHT22;23627;53.302;-6.362;2024-03-08T05:33:05;7.10;99.90
37788;DHT22;23627;53.302;-6.362;2024-03-08T05:35:30;7.10;99.90
37788;DHT22;23627;53.302;-6.362;2024-03-08T05:37:57;7.10;99.90
37788;DHT22;23627;53.302;-6.362;2024-03-08T05:40:23;7.00;99.90
37788;DHT22;23627;53.302;-6.362;2024-03-08T05:42:49;7.10;99.90
37788;DHT22;23627;53.302;-6.362;2024-03-08T05:45:15;7.00;99.90
37788;DHT22;23627;53.302;-6.362;2024-03-08T05:47:41;7.00;99.90
37788;DHT22;23627;53.302;-6.362;2024-03-08T05:50:08;7.00;99.90
37788;DHT22;23627;53.302;-6.362;2024-03-08T05:52:36;7.10;99.90
37788;DHT22;23627;53.302;-6.362;2024-03-08T05:55:03;7.10;99.90
37788;DHT22;23627;53.302;-6.362;2024-03-08T05:57:32;7.10;99.90
37788;DHT22;23627;53.302;-6.362;2024-03-08T05:59:58;7.00;99.90
37788;DHT22;23627;53.302;-6.362;2024-03-08T06:02:24;7.00;99.90
37788;DHT22;23627;53.302;-6.362;2024-03-08T06:04:49;7.10;99.90
37788;DHT22;23627;53.302;-6.362;2024-03-08T06:07:15;7.10;99.90
37788;DHT22;23627;53.302;-6.362;2024-03-08T06:09:43;7.10;99.90
37788;DHT22;23627;53.302;-6.362;2024-03-08T06:12:11;7.00;99.90
37788;DHT22;23627;53.302;-6.362;2024-03-08T06:14:37;7.10;99.90
37788;DHT22;23627;53.302;-6.362;2024-03-08T06:17:03;7.10;99.90
37788;DHT22;23627;53.302;-6.362;2024-03-08T06:19:32;7.10;99.90
37788;DHT22;23627;53.302;-6.362;2024-03-08T06:21:59;7.10;99.90
37788;DHT22;23627;53.302;-6.362;2024-03-08T06:24:26;7.10;99.90
37788;DHT22;23627;53.302;-6.362;2024-03-08T06:26:52;7.10;99.90
37788;DHT22;23627;53.302;-6.362;2024-03-08T06:29:19;7.10;99.90
37788;DHT22;23627;53.302;-6.362;2024-03-08T06:31:44;7.10;99.90
37788;DHT22;23627;53.302;-6.362;2024-03-08T06:34:10;7.10;99.90
37788;DHT22;23627;53.302;-6.362;2024-03-08T06:36:36;7.10;99.90
37788;DHT22;23627;53.302;-6.362;2024-03-08T06:39:03;7.10;99.90
37788;DHT22;23627;53.302;-6.362;2024-03-08T06:41:38;7.10;99.90
37788;DHT22;23627;53.302;-6.362;2024-03-08T06:44:04;7.10;99.90
37788;DHT22;23627;53.302;-6.362;2024-03-08T06:46:29;7.10;99.90
37788;DHT22;23627;53.302;-6.362;2024-03-08T06:48:55;7.10;99.90
37788;DHT22;23627;53.302;-6.362;2024-03-08T06:51:21;7.20;99.90
37788;DHT22;23627;53.302;-6.362;2024-03-08T06:53:47;7.10;99.90
37788;DHT22;23627;53.302;-6.362;2024-03-08T06:56:14;7.10;99.90
37788;DHT22;23627;53.302;-6.362;2024-03-08T06:58:41;7.10;99.90
37788;DHT22;23627;53.302;-6.362;2024-03-08T07:01:07;7.10;99.90
37788;DHT22;23627;53.302;-6.362;2024-03-08T07:03:41;7.10;99.90
37788;DHT22;23627;53.302;-6.362;2024-03-08T07:06:10;7.10;99.90
37788;DHT22;23627;53.302;-6.362;2024-03-08T07:08:36;7.20;99.90
37788;DHT22;23627;53.302;-6.362;2024-03-08T07:11:02;7.20;99.90
37788;DHT22;23627;53.302;-6.362;2024-03-08T07:13:29;7.10;99.90
37788;DHT22;23627;53.302;-6.362;2024-03-08T07:15:55;7.20;99.90
37788;DHT22;23627;53.302;-6.362;2024-03-08T07:18:20;7.20;99.90
37788;DHT22;23627;53.302;-6.362;2024-03-08T07:20:47;7.20;99.90
37788;DHT22;23627;53.302;-6.362;2024-03-08T07:23:14;7.20;99.90
37788;DHT22;23627;53.302;-6.362;2024-03-08T07:26:00;7.20;99.90
37788;DHT22;23627;53.302;-6.362;2024-03-08T07:28:27;7.30;99.90
37788;DHT22;23627;53.302;-6.362;2024-03-08T07:30:53;7.30;99.90
37788;DHT22;23627;53.302;-6.362;2024-03-08T07:33:27;7.30;99.90
37788;DHT22;23627;53.302;-6.362;2024-03-08T07:35:53;7.30;99.90
37788;DHT22;23627;53.302;-6.362;2024-03-08T07:38:18;7.30;99.90
37788;DHT22;23627;53.302;-6.362;2024-03-08T07:40:46;7.30;99.90
37788;DHT22;23627;53.302;-6.362;2024-03-08T07:43:13;7.30;99.90
37788;DHT22;23627;53.302;-6.362;2024-03-08T07:45:39;7.30;99.90
37788;DHT22;23627;53.302;-6.362;2024-03-08T07:48:06;7.30;99.90
37788;DHT22;23627;53.302;-6.362;2024-03-08T07:50:39;7.30;99.90
37788;DHT22;23627;53.302;-6.362;2024-03-08T07:53:06;7.30;99.90
37788;DHT22;23627;53.302;-6.362;2024-03-08T07:55:35;7.30;99.90
37788;DHT22;23627;53.302;-6.362;2024-03-08T07:58:02;7.30;99.90
37788;DHT22;23627;53.302;-6.362;2024-03-08T08:00:28;7.30;99.90
37788;DHT22;23627;53.302;-6.362;2024-03-08T08:02:55;7.40;99.90
37788;DHT22;23627;53.302;-6.362;2024-03-08T08:05:21;7.30;99.90
37788;DHT22;23627;53.302;-6.362;2024-03-08T08:07:47;7.30;99.90
37788;DHT22;23627;53.302;-6.362;2024-03-08T08:10:13;7.30;99.90
37788;DHT22;23627;53.302;-6.362;2024-03-08T08:12:44;7.30;99.90
37788;DHT22;23627;53.302;-6.362;2024-03-08T08:15:10;7.30;99.90
37788;DHT22;23627;53.302;-6.362;2024-03-08T08:17:36;7.30;99.90
37788;DHT22;23627;53.302;-6.362;2024-03-08T08:20:02;7.40;99.90
37788;DHT22;23627;53.302;-6.362;2024-03-08T08:22:31;7.40;99.90
37788;DHT22;23627;53.302;-6.362;2024-03-08T08:24:56;7.40;99.90
37788;DHT22;23627;53.302;-6.362;2024-03-08T08:27:22;7.50;99.90
37788;DHT22;23627;53.302;-6.362;2024-03-08T08:29:48;7.50;99.90
37788;DHT22;23627;53.302;-6.362;2024-03-08T08:32:15;7.50;99.90
37788;DHT22;23627;53.302;-6.362;2024-03-08T08:34:41;7.50;99.90
37788;DHT22;23627;53.302;-6.362;2024-03-08T08:37:07;7.60;99.90
37788;DHT22;23627;53.302;-6.362;2024-03-08T08:39:35;7.50;99.90
37788;DHT22;23627;53.302;-6.362;2024-03-08T08:42:01;7.60;99.90
37788;DHT22;23627;53.302;-6.362;2024-03-08T08:44:29;7.60;99.90
37788;DHT22;23627;53.302;-6.362;2024-03-08T08:46:57;7.60;99.90
37788;DHT22;23627;53.302;-6.362;2024-03-08T08:49:23;7.60;99.90
37788;DHT22;23627;53.302;-6.362;2024-03-08T08:51:52;7.70;99.90
37788;DHT22;23627;53.302;-6.362;2024-03-08T08:54:18;7.70;99.90
37788;DHT22;23627;53.302;-6.362;2024-03-08T08:56:45;7.70;99.90
37788;DHT22;23627;53.302;-6.362;2024-03-08T08:59:11;7.80;99.90
37788;DHT22;23627;53.302;-6.362;2024-03-08T09:01:40;7.80;99.90
37788;DHT22;23627;53.302;-6.362;2024-03-08T09:04:06;7.90;99.90
37788;DHT22;23627;53.302;-6.362;2024-03-08T09:06:33;7.90;99.90
37788;DHT22;23627;53.302;-6.362;2024-03-08T09:08:59;8.00;99.90
37788;DHT22;23627;53.302;-6.362;2024-03-08T09:11:24;8.10;99.90
37788;DHT22;23627;53.302;-6.362;2024-03-08T09:13:53;8.10;99.90
37788;DHT22;23627;53.302;-6.362;2024-03-08T09:16:19;8.10;99.90
37788;DHT22;23627;53.302;-6.362;2024-03-08T09:18:44;8.10;99.90
37788;DHT22;23627;53.302;-6.362;2024-03-08T09:21:10;8.20;99.90
37788;DHT22;23627;53.302;-6.362;2024-03-08T09:23:38;8.20;99.90
37788;DHT22;23627;53.302;-6.362;2024-03-08T09:26:06;8.30;99.90
37788;DHT22;23627;53.302;-6.362;2024-03-08T09:28:35;8.40;99.90
37788;DHT22;23627;53.302;-6.362;2024-03-08T09:31:01;8.50;99.90
37788;DHT22;23627;53.302;-6.362;2024-03-08T09:33:26;8.60;99.90
37788;DHT22;23627;53.302;-6.362;2024-03-08T09:35:54;8.70;99.90
37788;DHT22;23627;53.302;-6.362;2024-03-08T09:38:20;8.80;99.90
37788;DHT22;23627;53.302;-6.362;2024-03-08T09:40:46;8.90;99.90
37788;DHT22;23627;53.302;-6.362;2024-03-08T09:43:13;9.00;99.90
37788;DHT22;23627;53.302;-6.362;2024-03-08T09:45:40;9.10;99.90
37788;DHT22;23627;53.302;-6.362;2024-03-08T09:48:11;9.20;99.90
37788;DHT22;23627;53.302;-6.362;2024-03-08T09:50:40;9.30;99.90
37788;DHT22;23627;53.302;-6.362;2024-03-08T09:53:07;9.30;99.90
37788;DHT22;23627;53.302;-6.362;2024-03-08T09:55:38;9.40;99.90
37788;DHT22;23627;53.302;-6.362;2024-03-08T09:58:09;9.50;99.90
37788;DHT22;23627;53.302;-6.362;2024-03-08T10:00:56;9.60;99.90
37788;DHT22;23627;53.302;-6.362;2024-03-08T10:03:27;9.60;99.90
37788;DHT22;23627;53.302;-6.362;2024-03-08T10:05:53;9.60;99.90
37788;DHT22;23627;53.302;-6.362;2024-03-08T10:08:22;9.50;99.90
37788;DHT22;23627;53.302;-6.362;2024-03-08T10:10:47;9.50;99.90
37788;DHT22;23627;53.302;-6.362;2024-03-08T10:13:15;9.40;99.90
37788;DHT22;23627;53.302;-6.362;2024-03-08T10:15:42;9.40;99.90
37788;DHT22;23627;53.302;-6.362;2024-03-08T10:18:09;9.50;99.90
37788;DHT22;23627;53.302;-6.362;2024-03-08T10:20:36;9.40;99.90
37788;DHT22;23627;53.302;-6.362;2024-03-08T10:23:05;9.40;99.90
37788;DHT22;23627;53.302;-6.362;2024-03-08T10:25:32;9.40;99.90
37788;DHT22;23627;53.302;-6.362;2024-03-08T10:27:58;9.50;99.90
37788;DHT22;23627;53.302;-6.362;2024-03-08T10:30:24;9.40;99.90
37788;DHT22;23627;53.302;-6.362;2024-03-08T10:32:50;9.40;99.90
37788;DHT22;23627;53.302;-6.362;2024-03-08T10:35:17;9.40;99.90
37788;DHT22;23627;53.302;-6.362;2024-03-08T10:37:48;9.30;99.90
37788;DHT22;23627;53.302;-6.362;2024-03-08T10:40:19;9.20;99.90
37788;DHT22;23627;53.302;-6.362;2024-03-08T10:42:58;9.20;99.90
37788;DHT22;23627;53.302;-6.362;2024-03-08T10:48:24;9.20;99.90
37788;DHT22;23627;53.302;-6.362;2024-03-08T10:50:53;9.20;99.90
37788;DHT22;23627;53.302;-6.362;2024-03-08T10:53:19;9.10;99.90
37788;DHT22;23627;53.302;-6.362;2024-03-08T10:55:50;9.10;99.90
37788;DHT22;23627;53.302;-6.362;2024-03-08T10:58:21;9.00;99.90
37788;DHT22;23627;53.302;-6.362;2024-03-08T11:00:48;9.00;99.90
37788;DHT22;23627;53.302;-6.362;2024-03-08T11:06:17;9.00;99.90
37788;DHT22;23627;53.302;-6.362;2024-03-08T11:08:44;9.00;99.90
37788;DHT22;23627;53.302;-6.362;2024-03-08T11:11:28;9.00;99.90
37788;DHT22;23627;53.302;-6.362;2024-03-08T11:13:58;9.00;99.90
37788;DHT22;23627;53.302;-6.362;2024-03-08T11:18:55;8.90;99.90
37788;DHT22;23627;53.302;-6.362;2024-03-08T11:21:23;8.90;99.90
37788;DHT22;23627;53.302;-6.362;2024-03-08T11:24:08;8.80;99.90
37788;DHT22;23627;53.302;-6.362;2024-03-08T11:26:37;8.80;99.90
37788;DHT22;23627;53.302;-6.362;2024-03-08T11:29:43;8.90;99.90
37788;DHT22;23627;53.302;-6.362;2024-03-08T11:32:10;8.90;99.90
37788;DHT22;23627;53.302;-6.362;2024-03-08T11:34:37;8.90;99.90
37788;DHT22;23627;53.302;-6.362;2024-03-08T11:37:06;9.00;99.90
37788;DHT22;23627;53.302;-6.362;2024-03-08T11:39:35;9.00;99.90
37788;DHT22;23627;53.302;-6.362;2024-03-08T11:42:02;9.10;99.90
37788;DHT22;23627;53.302;-6.362;2024-03-08T11:44:30;9.10;99.90
37788;DHT22;23627;53.302;-6.362;2024-03-08T11:46:57;9.20;99.90
37788;DHT22;23627;53.302;-6.362;2024-03-08T11:49:23;9.20;99.90
37788;DHT22;23627;53.302;-6.362;2024-03-08T11:51:52;9.20;99.90
37788;DHT22;23627;53.302;-6.362;2024-03-08T11:54:21;9.20;99.90
37788;DHT22;23627;53.302;-6.362;2024-03-08T11:56:51;9.20;99.90
37788;DHT22;23627;53.302;-6.362;2024-03-08T11:59:16;9.20;99.90
37788;DHT22;23627;53.302;-6.362;2024-03-08T12:01:43;9.20;99.90
37788;DHT22;23627;53.302;-6.362;2024-03-08T12:04:12;9.20;99.90
37788;DHT22;23627;53.302;-6.362;2024-03-08T12:06:39;9.20;99.90
37788;DHT22;23627;53.302;-6.362;2024-03-08T12:09:12;9.20;99.90
37788;DHT22;23627;53.302;-6.362;2024-03-08T12:11:38;9.20;99.90
37788;DHT22;23627;53.302;-6.362;2024-03-08T12:14:04;9.10;99.90
37788;DHT22;23627;53.302;-6.362;2024-03-08T12:16:32;9.10;99.90
37788;DHT22;23627;53.302;-6.362;2024-03-08T12:18:58;9.10;99.90
37788;DHT22;23627;53.302;-6.362;2024-03-08T12:21:26;9.10;99.90
37788;DHT22;23627;53.302;-6.362;2024-03-08T12:26:29;9.30;99.90
37788;DHT22;23627;53.302;-6.362;2024-03-08T12:31:46;9.40;99.90
37788;DHT22;23627;53.302;-6.362;2024-03-08T12:34:13;9.50;99.90
37788;DHT22;23627;53.302;-6.362;2024-03-08T12:36:49;9.50;99.90
37788;DHT22;23627;53.302;-6.362;2024-03-08T12:39:21;9.60;99.90
37788;DHT22;23627;53.302;-6.362;2024-03-08T12:41:56;9.60;99.90
37788;DHT22;23627;53.302;-6.362;2024-03-08T12:44:27;9.60;99.90
37788;DHT22;23627;53.302;-6.362;2024-03-08T12:46:54;9.60;99.90
37788;DHT22;23627;53.302;-6.362;2024-03-08T12:49:20;9.60;99.90
37788;DHT22;23627;53.302;-6.362;2024-03-08T12:51:49;9.60;99.90
37788;DHT22;23627;53.302;-6.362;2024-03-08T12:54:15;9.60;99.90
37788;DHT22;23627;53.302;-6.362;2024-03-08T12:56:40;9.60;99.90
37788;DHT22;23627;53.302;-6.362;2024-03-08T12:59:08;9.60;99.90
37788;DHT22;23627;53.302;-6.362;2024-03-08T13:01:34;9.60;99.90
37788;DHT22;23627;53.302;-6.362;2024-03-08T13:04:03;9.50;99.90
37788;DHT22;23627;53.302;-6.362;2024-03-08T13:06:29;9.50;99.90
37788;DHT22;23627;53.302;-6.362;2024-03-08T13:08:56;9.50;99.90
37788;DHT22;23627;53.302;-6.362;2024-03-08T13:11:24;9.50;99.90
37788;DHT22;23627;53.302;-6.362;2024-03-08T13:13:51;9.50;99.90
37788;DHT22;23627;53.302;-6.362;2024-03-08T13:16:18;9.60;99.90
37788;DHT22;23627;53.302;-6.362;2024-03-08T13:18:45;9.60;99.90
37788;DHT22;23627;53.302;-6.362;2024-03-08T13:21:14;9.60;99.90
37788;DHT22;23627;53.302;-6.362;2024-03-08T13:23:44;9.60;99.90
37788;DHT22;23627;53.302;-6.362;2024-03-08T13:26:15;9.50;99.90
37788;DHT22;23627;53.302;-6.362;2024-03-08T13:28:50;9.50;99.90
37788;DHT22;23627;53.302;-6.362;2024-03-08T13:31:19;9.50;99.90
37788;DHT22;23627;53.302;-6.362;2024-03-08T13:33:45;9.50;99.90
37788;DHT22;23627;53.302;-6.362;2024-03-08T13:36:12;9.40;99.90
37788;DHT22;23627;53.302;-6.362;2024-03-08T13:38:48;9.40;99.90
37788;DHT22;23627;53.302;-6.362;2024-03-08T13:41:16;9.40;99.90
37788;DHT22;23627;53.302;-6.362;2024-03-08T13:43:46;9.40;99.90
37788;DHT22;23627;53.302;-6.362;2024-03-08T13:46:15;9.40;99.90
37788;DHT22;23627;53.302;-6.362;2024-03-08T13:48:41;9.40;99.90
37788;DHT22;23627;53.302;-6.362;2024-03-08T13:51:07;9.50;99.90
37788;DHT22;23627;53.302;-6.362;2024-03-08T13:53:33;9.60;99.90
37788;DHT22;23627;53.302;-6.362;2024-03-08T13:56:03;9.60;99.90
37788;DHT22;23627;53.302;-6.362;2024-03-08T13:58:29;9.60;99.90
37788;DHT22;23627;53.302;-6.362;2024-03-08T14:00:54;9.60;99.90
37788;DHT22;23627;53.302;-6.362;2024-03-08T14:03:21;9.70;99.90
37788;DHT22;23627;53.302;-6.362;2024-03-08T14:05:47;9.70;99.90
37788;DHT22;23627;53.302;-6.362;2024-03-08T14:08:13;9.80;99.90
37788;DHT22;23627;53.302;-6.362;2024-03-08T14:10:39;9.80;99.90
37788;DHT22;23627;53.302;-6.362;2024-03-08T14:13:05;9.80;99.90
37788;DHT22;23627;53.302;-6.362;2024-03-08T14:15:32;9.90;99.90
37788;DHT22;23627;53.302;-6.362;2024-03-08T14:17:58;9.90;99.90
37788;DHT22;23627;53.302;-6.362;2024-03-08T14:20:25;9.90;99.90
37788;DHT22;23627;53.302;-6.362;2024-03-08T14:22:54;9.90;99.90
37788;DHT22;23627;53.302;-6.362;2024-03-08T14:25:20;10.00;99.90
37788;DHT22;23627;53.302;-6.362;2024-03-08T14:27:53;10.00;99.90
37788;DHT22;23627;53.302;-6.362;2024-03-08T14:30:20;10.00;99.90
37788;DHT22;23627;53.302;-6.362;2024-03-08T14:33:09;10.00;99.90
37788;DHT22;23627;53.302;-6.362;2024-03-08T14:35:35;10.00;99.90
37788;DHT22;23627;53.302;-6.362;2024-03-08T14:38:02;10.10;99.90
37788;DHT22;23627;53.302;-6.362;2024-03-08T14:40:28;10.10;99.90
37788;DHT22;23627;53.302;-6.362;2024-03-08T14:42:56;10.10;99.90
37788;DHT22;23627;53.302;-6.362;2024-03-08T14:45:22;10.10;99.90
37788;DHT22;23627;53.302;-6.362;2024-03-08T14:47:50;10.10;99.90
37788;DHT22;23627;53.302;-6.362;2024-03-08T14:50:20;10.10;99.90
37788;DHT22;23627;53.302;-6.362;2024-03-08T14:52:46;10.10;99.90
37788;DHT22;23627;53.302;-6.362;2024-03-08T14:55:17;10.10;99.90
37788;DHT22;23627;53.302;-6.362;2024-03-08T14:57:50;10.00;99.90
37788;DHT22;23627;53.302;-6.362;2024-03-08T15:00:20;10.00;99.90
37788;DHT22;23627;53.302;-6.362;2024-03-08T15:02:55;10.00;99.90
37788;DHT22;23627;53.302;-6.362;2024-03-08T15:05:24;9.90;99.90
37788;DHT22;23627;53.302;-6.362;2024-03-08T15:07:53;9.90;99.90
37788;DHT22;23627;53.302;-6.362;2024-03-08T15:10:20;9.90;99.90
37788;DHT22;23627;53.302;-6.362;2024-03-08T15:12:48;9.90;99.90
37788;DHT22;23627;53.302;-6.362;2024-03-08T15:15:14;9.90;99.90
37788;DHT22;23627;53.302;-6.362;2024-03-08T15:17:44;9.80;99.90
37788;DHT22;23627;53.302;-6.362;2024-03-08T15:20:13;9.80;99.90
37788;DHT22;23627;53.302;-6.362;2024-03-08T15:22:43;9.80;99.90
37788;DHT22;23627;53.302;-6.362;2024-03-08T15:25:10;9.80;99.90
37788;DHT22;23627;53.302;-6.362;2024-03-08T15:27:46;9.80;99.90
37788;DHT22;23627;53.302;-6.362;2024-03-08T15:30:12;9.80;99.90
37788;DHT22;23627;53.302;-6.362;2024-03-08T15:32:45;9.80;99.90
37788;DHT22;23627;53.302;-6.362;2024-03-08T15:35:13;9.70;99.90
37788;DHT22;23627;53.302;-6.362;2024-03-08T15:37:43;9.70;99.90
37788;DHT22;23627;53.302;-6.362;2024-03-08T15:40:13;9.70;99.90
37788;DHT22;23627;53.302;-6.362;2024-03-08T15:45:20;9.70;99.90
37788;DHT22;23627;53.302;-6.362;2024-03-08T15:47:52;9.80;99.90